Halkirk, Canada
Current Conditions -  °F | °C
As of 7:00 PM on Saturday 25 Oct 2014 (Local Time) from CYQF Reporting Station
Broken Clouds Broken Clouds  
Wind Chill:   Ceiling: 20000
Heat Index:   Visibility: 15mi
Dew Point: -5°   Wind: 18mph
Humidity: 43%   Direction: 140°SE
Pressure: 29.57"   Gusts: NA
Location:  52.28°N, 112.15°W
Report Text: CYQF 260100Z 14016KT 15SM SCT040 BKN200 07/M05 A2957 RMK SC4CI2 SLP049 DENSITY ALT 3100FT
Loading
Personal Weather Stations






























Interactive Weather Map
Tropical Storm Tracking
New forecast layout! Learn more

10-Day Weather Forecast

Advertisements
Track Severe Weather on mobile